sensor_id;sensor_type;location;lat;lon;timestamp;P1;durP1;ratioP1;P2;durP2;ratioP2
61785;SDS011;47692;53.714;11.372;2023-06-26T00:00:15;11.50;;;5.88;;
61785;SDS011;47692;53.714;11.372;2023-06-26T00:02:40;7.35;;;5.70;;
61785;SDS011;47692;53.714;11.372;2023-06-26T00:05:06;7.78;;;5.70;;
61785;SDS011;47692;53.714;11.372;2023-06-26T00:07:32;8.23;;;5.88;;
61785;SDS011;47692;53.714;11.372;2023-06-26T00:10:02;8.50;;;5.80;;
61785;SDS011;47692;53.714;11.372;2023-06-26T00:12:28;8.45;;;6.30;;
61785;SDS011;47692;53.714;11.372;2023-06-26T00:14:54;6.50;;;5.30;;
61785;SDS011;47692;53.714;11.372;2023-06-26T00:17:20;8.10;;;5.80;;
61785;SDS011;47692;53.714;11.372;2023-06-26T00:19:45;7.50;;;5.38;;
61785;SDS011;47692;53.714;11.372;2023-06-26T00:22:10;8.27;;;5.82;;
61785;SDS011;47692;53.714;11.372;2023-06-26T00:24:36;6.63;;;5.35;;
61785;SDS011;47692;53.714;11.372;2023-06-26T00:27:02;9.27;;;5.70;;
61785;SDS011;47692;53.714;11.372;2023-06-26T00:29:27;8.27;;;6.45;;
61785;SDS011;47692;53.714;11.372;2023-06-26T00:31:52;8.15;;;6.07;;
61785;SDS011;47692;53.714;11.372;2023-06-26T00:34:18;9.25;;;6.60;;
61785;SDS011;47692;53.714;11.372;2023-06-26T00:36:44;8.57;;;5.95;;
61785;SDS011;47692;53.714;11.372;2023-06-26T00:39:10;8.32;;;6.57;;
61785;SDS011;47692;53.714;11.372;2023-06-26T00:41:36;9.82;;;6.55;;
61785;SDS011;47692;53.714;11.372;2023-06-26T00:44:02;10.38;;;6.70;;
61785;SDS011;47692;53.714;11.372;2023-06-26T00:46:28;9.38;;;6.85;;
61785;SDS011;47692;53.714;11.372;2023-06-26T00:48:53;10.23;;;7.88;;
61785;SDS011;47692;53.714;11.372;2023-06-26T00:51:20;9.82;;;7.65;;
61785;SDS011;47692;53.714;11.372;2023-06-26T00:53:45;10.30;;;7.97;;
61785;SDS011;47692;53.714;11.372;2023-06-26T00:56:11;11.90;;;8.30;;
61785;SDS011;47692;53.714;11.372;2023-06-26T00:58:36;9.07;;;7.72;;
61785;SDS011;47692;53.714;11.372;2023-06-26T01:01:02;11.05;;;8.35;;
61785;SDS011;47692;53.714;11.372;2023-06-26T01:03:27;9.82;;;8.32;;
61785;SDS011;47692;53.714;11.372;2023-06-26T01:05:53;9.90;;;7.88;;
61785;SDS011;47692;53.714;11.372;2023-06-26T01:08:21;11.20;;;8.35;;
61785;SDS011;47692;53.714;11.372;2023-06-26T01:10:47;11.57;;;9.02;;
61785;SDS011;47692;53.714;11.372;2023-06-26T01:13:13;10.15;;;8.02;;
61785;SDS011;47692;53.714;11.372;2023-06-26T01:15:40;11.05;;;8.80;;
61785;SDS011;47692;53.714;11.372;2023-06-26T01:18:05;11.23;;;8.20;;
61785;SDS011;47692;53.714;11.372;2023-06-26T01:20:32;10.20;;;8.60;;
61785;SDS011;47692;53.714;11.372;2023-06-26T01:23:12;9.63;;;8.07;;
61785;SDS011;47692;53.714;11.372;2023-06-26T01:25:41;14.13;;;8.70;;
61785;SDS011;47692;53.714;11.372;2023-06-26T01:28:26;11.73;;;8.73;;
61785;SDS011;47692;53.714;11.372;2023-06-26T01:30:52;10.95;;;8.30;;
61785;SDS011;47692;53.714;11.372;2023-06-26T01:33:19;11.10;;;8.90;;
61785;SDS011;47692;53.714;11.372;2023-06-26T01:35:45;10.15;;;8.68;;
61785;SDS011;47692;53.714;11.372;2023-06-26T01:38:14;11.85;;;8.18;;
61785;SDS011;47692;53.714;11.372;2023-06-26T01:40:41;10.75;;;8.60;;
61785;SDS011;47692;53.714;11.372;2023-06-26T01:43:07;13.43;;;8.25;;
61785;SDS011;47692;53.714;11.372;2023-06-26T01:45:40;10.77;;;8.70;;
61785;SDS011;47692;53.714;11.372;2023-06-26T01:48:06;11.88;;;8.75;;
61785;SDS011;47692;53.714;11.372;2023-06-26T01:50:33;11.65;;;8.95;;
61785;SDS011;47692;53.714;11.372;2023-06-26T01:53:02;11.48;;;9.10;;
61785;SDS011;47692;53.714;11.372;2023-06-26T01:58:19;13.30;;;9.18;;
61785;SDS011;47692;53.714;11.372;2023-06-26T02:00:47;11.15;;;8.73;;
61785;SDS011;47692;53.714;11.372;2023-06-26T02:03:12;15.07;;;10.00;;
61785;SDS011;47692;53.714;11.372;2023-06-26T02:05:38;12.10;;;8.70;;
61785;SDS011;47692;53.714;11.372;2023-06-26T02:08:03;11.48;;;8.77;;
61785;SDS011;47692;53.714;11.372;2023-06-26T02:10:29;11.82;;;8.52;;
61785;SDS011;47692;53.714;11.372;2023-06-26T02:12:55;11.18;;;9.18;;
61785;SDS011;47692;53.714;11.372;2023-06-26T02:15:20;11.30;;;9.00;;
61785;SDS011;47692;53.714;11.372;2023-06-26T02:17:45;12.70;;;8.90;;
61785;SDS011;47692;53.714;11.372;2023-06-26T02:20:14;14.10;;;9.50;;
61785;SDS011;47692;53.714;11.372;2023-06-26T02:22:40;11.55;;;10.05;;
61785;SDS011;47692;53.714;11.372;2023-06-26T02:25:06;13.10;;;9.15;;
61785;SDS011;47692;53.714;11.372;2023-06-26T02:27:31;11.93;;;9.20;;
61785;SDS011;47692;53.714;11.372;2023-06-26T02:29:56;11.13;;;9.43;;
61785;SDS011;47692;53.714;11.372;2023-06-26T02:32:22;11.95;;;9.45;;
61785;SDS011;47692;53.714;11.372;2023-06-26T02:34:47;11.43;;;9.27;;
61785;SDS011;47692;53.714;11.372;2023-06-26T02:37:12;13.90;;;9.40;;
61785;SDS011;47692;53.714;11.372;2023-06-26T02:39:38;13.65;;;9.60;;
61785;SDS011;47692;53.714;11.372;2023-06-26T02:42:03;14.88;;;10.13;;
61785;SDS011;47692;53.714;11.372;2023-06-26T02:44:28;11.85;;;9.18;;
61785;SDS011;47692;53.714;11.372;2023-06-26T02:46:54;11.38;;;9.35;;
61785;SDS011;47692;53.714;11.372;2023-06-26T02:49:20;11.80;;;9.55;;
61785;SDS011;47692;53.714;11.372;2023-06-26T02:51:45;13.52;;;9.95;;
61785;SDS011;47692;53.714;11.372;2023-06-26T02:54:10;12.00;;;9.88;;
61785;SDS011;47692;53.714;11.372;2023-06-26T02:56:36;11.85;;;9.25;;
61785;SDS011;47692;53.714;11.372;2023-06-26T02:59:01;13.85;;;9.63;;
61785;SDS011;47692;53.714;11.372;2023-06-26T03:01:26;12.18;;;9.45;;
61785;SDS011;47692;53.714;11.372;2023-06-26T03:03:52;17.30;;;9.82;;
61785;SDS011;47692;53.714;11.372;2023-06-26T03:06:17;9.93;;;8.68;;
61785;SDS011;47692;53.714;11.372;2023-06-26T03:08:43;9.95;;;8.30;;
61785;SDS011;47692;53.714;11.372;2023-06-26T03:11:08;12.68;;;9.27;;
61785;SDS011;47692;53.714;11.372;2023-06-26T03:13:34;12.68;;;8.52;;
61785;SDS011;47692;53.714;11.372;2023-06-26T03:16:00;10.52;;;8.60;;
61785;SDS011;47692;53.714;11.372;2023-06-26T03:18:26;12.20;;;8.95;;
61785;SDS011;47692;53.714;11.372;2023-06-26T03:20:52;11.52;;;9.20;;
61785;SDS011;47692;53.714;11.372;2023-06-26T03:23:19;14.63;;;9.13;;
61785;SDS011;47692;53.714;11.372;2023-06-26T03:25:45;12.25;;;9.57;;
61785;SDS011;47692;53.714;11.372;2023-06-26T03:28:10;16.08;;;8.93;;
61785;SDS011;47692;53.714;11.372;2023-06-26T03:30:36;12.45;;;9.23;;
61785;SDS011;47692;53.714;11.372;2023-06-26T03:33:01;12.27;;;9.38;;
61785;SDS011;47692;53.714;11.372;2023-06-26T03:35:26;10.18;;;8.50;;
61785;SDS011;47692;53.714;11.372;2023-06-26T03:37:52;10.23;;;8.55;;
61785;SDS011;47692;53.714;11.372;2023-06-26T03:40:17;11.52;;;8.25;;
61785;SDS011;47692;53.714;11.372;2023-06-26T03:42:42;12.70;;;9.00;;
61785;SDS011;47692;53.714;11.372;2023-06-26T03:45:08;12.35;;;8.70;;
61785;SDS011;47692;53.714;11.372;2023-06-26T03:47:33;11.43;;;9.10;;
61785;SDS011;47692;53.714;11.372;2023-06-26T03:49:58;11.27;;;8.40;;
61785;SDS011;47692;53.714;11.372;2023-06-26T03:52:24;11.75;;;8.60;;
61785;SDS011;47692;53.714;11.372;2023-06-26T03:54:49;11.63;;;8.93;;
61785;SDS011;47692;53.714;11.372;2023-06-26T03:57:14;12.57;;;8.35;;
61785;SDS011;47692;53.714;11.372;2023-06-26T03:59:40;10.43;;;8.30;;
61785;SDS011;47692;53.714;11.372;2023-06-26T04:02:05;11.55;;;8.90;;
61785;SDS011;47692;53.714;11.372;2023-06-26T04:04:30;10.73;;;8.05;;
61785;SDS011;47692;53.714;11.372;2023-06-26T04:06:56;11.55;;;8.10;;
61785;SDS011;47692;53.714;11.372;2023-06-26T04:09:22;10.30;;;8.27;;
61785;SDS011;47692;53.714;11.372;2023-06-26T04:11:47;11.00;;;7.88;;
61785;SDS011;47692;53.714;11.372;2023-06-26T04:14:13;11.07;;;7.57;;
61785;SDS011;47692;53.714;11.372;2023-06-26T04:16:38;9.45;;;8.05;;
61785;SDS011;47692;53.714;11.372;2023-06-26T04:19:03;11.55;;;8.18;;
61785;SDS011;47692;53.714;11.372;2023-06-26T04:21:29;10.05;;;8.15;;
61785;SDS011;47692;53.714;11.372;2023-06-26T04:23:55;10.07;;;8.07;;
61785;SDS011;47692;53.714;11.372;2023-06-26T04:26:20;10.80;;;7.50;;
61785;SDS011;47692;53.714;11.372;2023-06-26T04:28:46;10.80;;;8.20;;
61785;SDS011;47692;53.714;11.372;2023-06-26T04:31:11;11.55;;;8.15;;
61785;SDS011;47692;53.714;11.372;2023-06-26T04:33:37;10.73;;;7.68;;
61785;SDS011;47692;53.714;11.372;2023-06-26T04:36:03;13.57;;;8.13;;
61785;SDS011;47692;53.714;11.372;2023-06-26T04:38:29;10.75;;;8.02;;
61785;SDS011;47692;53.714;11.372;2023-06-26T04:40:56;13.68;;;8.13;;
61785;SDS011;47692;53.714;11.372;2023-06-26T04:43:21;9.98;;;7.85;;
61785;SDS011;47692;53.714;11.372;2023-06-26T04:45:46;9.40;;;7.75;;
61785;SDS011;47692;53.714;11.372;2023-06-26T04:48:12;13.20;;;8.30;;
61785;SDS011;47692;53.714;11.372;2023-06-26T04:50:38;8.80;;;7.70;;
61785;SDS011;47692;53.714;11.372;2023-06-26T04:53:03;11.45;;;8.25;;
61785;SDS011;47692;53.714;11.372;2023-06-26T04:55:28;10.07;;;7.55;;
61785;SDS011;47692;53.714;11.372;2023-06-26T04:57:54;11.65;;;7.95;;
61785;SDS011;47692;53.714;11.372;2023-06-26T05:00:19;10.35;;;7.65;;
61785;SDS011;47692;53.714;11.372;2023-06-26T05:02:44;9.95;;;7.90;;
61785;SDS011;47692;53.714;11.372;2023-06-26T05:10:48;8.32;;;6.78;;
61785;SDS011;47692;53.714;11.372;2023-06-26T05:13:14;9.40;;;7.30;;
61785;SDS011;47692;53.714;11.372;2023-06-26T05:15:42;9.32;;;7.30;;
61785;SDS011;47692;53.714;11.372;2023-06-26T05:18:11;9.27;;;7.05;;
61785;SDS011;47692;53.714;11.372;2023-06-26T05:20:36;9.80;;;7.60;;
61785;SDS011;47692;53.714;11.372;2023-06-26T05:23:03;11.68;;;7.38;;
61785;SDS011;47692;53.714;11.372;2023-06-26T05:25:29;9.48;;;7.47;;
61785;SDS011;47692;53.714;11.372;2023-06-26T05:27:55;9.10;;;7.47;;
61785;SDS011;47692;53.714;11.372;2023-06-26T05:30:21;7.95;;;6.88;;
61785;SDS011;47692;53.714;11.372;2023-06-26T05:32:47;9.15;;;7.50;;
61785;SDS011;47692;53.714;11.372;2023-06-26T05:35:13;11.60;;;7.10;;
61785;SDS011;47692;53.714;11.372;2023-06-26T05:37:40;11.07;;;7.03;;
61785;SDS011;47692;53.714;11.372;2023-06-26T05:40:07;10.73;;;6.80;;
61785;SDS011;47692;53.714;11.372;2023-06-26T05:42:34;11.80;;;6.13;;
61785;SDS011;47692;53.714;11.372;2023-06-26T05:44:59;8.70;;;6.82;;
61785;SDS011;47692;53.714;11.372;2023-06-26T05:47:24;9.85;;;7.22;;
61785;SDS011;47692;53.714;11.372;2023-06-26T05:49:50;9.00;;;7.05;;
61785;SDS011;47692;53.714;11.372;2023-06-26T05:52:15;9.57;;;6.93;;
61785;SDS011;47692;53.714;11.372;2023-06-26T05:54:41;8.90;;;7.43;;
61785;SDS011;47692;53.714;11.372;2023-06-26T05:57:07;12.07;;;7.43;;
61785;SDS011;47692;53.714;11.372;2023-06-26T05:59:32;12.45;;;7.03;;
61785;SDS011;47692;53.714;11.372;2023-06-26T06:02:00;8.32;;;6.32;;
61785;SDS011;47692;53.714;11.372;2023-06-26T06:04:25;9.43;;;6.72;;
61785;SDS011;47692;53.714;11.372;2023-06-26T06:06:51;10.43;;;6.95;;
61785;SDS011;47692;53.714;11.372;2023-06-26T06:09:16;9.95;;;7.07;;
61785;SDS011;47692;53.714;11.372;2023-06-26T06:11:42;10.70;;;7.10;;
61785;SDS011;47692;53.714;11.372;2023-06-26T06:14:07;8.88;;;6.78;;
61785;SDS011;47692;53.714;11.372;2023-06-26T06:16:32;9.40;;;6.82;;
61785;SDS011;47692;53.714;11.372;2023-06-26T06:18:58;8.15;;;6.32;;
61785;SDS011;47692;53.714;11.372;2023-06-26T06:21:23;8.98;;;7.00;;
61785;SDS011;47692;53.714;11.372;2023-06-26T06:23:48;8.98;;;6.78;;
61785;SDS011;47692;53.714;11.372;2023-06-26T06:26:14;12.35;;;7.13;;
61785;SDS011;47692;53.714;11.372;2023-06-26T06:28:39;8.57;;;6.70;;
61785;SDS011;47692;53.714;11.372;2023-06-26T06:31:05;9.95;;;6.70;;
61785;SDS011;47692;53.714;11.372;2023-06-26T06:33:30;12.07;;;7.10;;
61785;SDS011;47692;53.714;11.372;2023-06-26T06:35:55;9.43;;;6.88;;
61785;SDS011;47692;53.714;11.372;2023-06-26T06:38:21;9.32;;;6.72;;
61785;SDS011;47692;53.714;11.372;2023-06-26T06:40:46;8.13;;;6.85;;
61785;SDS011;47692;53.714;11.372;2023-06-26T06:43:11;8.90;;;6.72;;
61785;SDS011;47692;53.714;11.372;2023-06-26T06:45:37;12.45;;;6.90;;
61785;SDS011;47692;53.714;11.372;2023-06-26T06:48:05;9.60;;;6.60;;
61785;SDS011;47692;53.714;11.372;2023-06-26T06:50:31;11.07;;;6.85;;
61785;SDS011;47692;53.714;11.372;2023-06-26T06:52:56;8.40;;;7.15;;
61785;SDS011;47692;53.714;11.372;2023-06-26T06:55:21;8.93;;;6.47;;
61785;SDS011;47692;53.714;11.372;2023-06-26T06:57:47;7.57;;;6.30;;
61785;SDS011;47692;53.714;11.372;2023-06-26T07:00:13;10.57;;;6.82;;
61785;SDS011;47692;53.714;11.372;2023-06-26T07:02:40;8.05;;;6.45;;
61785;SDS011;47692;53.714;11.372;2023-06-26T07:05:07;8.50;;;6.75;;
61785;SDS011;47692;53.714;11.372;2023-06-26T07:07:33;10.02;;;6.82;;
61785;SDS011;47692;53.714;11.372;2023-06-26T07:10:00;7.70;;;6.30;;
61785;SDS011;47692;53.714;11.372;2023-06-26T07:12:27;11.00;;;6.63;;
61785;SDS011;47692;53.714;11.372;2023-06-26T07:14:52;10.77;;;6.15;;
61785;SDS011;47692;53.714;11.372;2023-06-26T07:17:19;9.85;;;6.88;;
61785;SDS011;47692;53.714;11.372;2023-06-26T07:19:44;8.45;;;6.38;;
61785;SDS011;47692;53.714;11.372;2023-06-26T07:22:09;11.52;;;7.07;;
61785;SDS011;47692;53.714;11.372;2023-06-26T07:24:35;9.20;;;6.30;;
61785;SDS011;47692;53.714;11.372;2023-06-26T07:27:00;8.55;;;6.47;;
61785;SDS011;47692;53.714;11.372;2023-06-26T07:29:26;8.60;;;5.93;;
61785;SDS011;47692;53.714;11.372;2023-06-26T07:31:51;9.00;;;6.10;;
61785;SDS011;47692;53.714;11.372;2023-06-26T07:34:16;7.07;;;5.93;;
61785;SDS011;47692;53.714;11.372;2023-06-26T07:36:41;8.98;;;5.78;;
61785;SDS011;47692;53.714;11.372;2023-06-26T07:39:07;9.02;;;6.72;;
61785;SDS011;47692;53.714;11.372;2023-06-26T07:41:32;8.00;;;6.38;;
61785;SDS011;47692;53.714;11.372;2023-06-26T07:43:58;8.93;;;6.30;;
61785;SDS011;47692;53.714;11.372;2023-06-26T07:46:23;8.63;;;6.60;;
61785;SDS011;47692;53.714;11.372;2023-06-26T07:48:48;8.55;;;6.65;;
61785;SDS011;47692;53.714;11.372;2023-06-26T07:51:14;8.55;;;6.53;;
61785;SDS011;47692;53.714;11.372;2023-06-26T07:53:39;7.97;;;6.20;;
61785;SDS011;47692;53.714;11.372;2023-06-26T07:56:04;8.43;;;5.75;;
61785;SDS011;47692;53.714;11.372;2023-06-26T07:58:30;6.90;;;5.60;;
61785;SDS011;47692;53.714;11.372;2023-06-26T08:00:55;6.65;;;5.45;;
61785;SDS011;47692;53.714;11.372;2023-06-26T08:03:20;7.90;;;5.97;;
61785;SDS011;47692;53.714;11.372;2023-06-26T08:05:46;7.65;;;5.70;;
61785;SDS011;47692;53.714;11.372;2023-06-26T08:08:11;6.68;;;5.90;;
61785;SDS011;47692;53.714;11.372;2023-06-26T08:10:37;8.63;;;6.47;;
61785;SDS011;47692;53.714;11.372;2023-06-26T08:13:02;7.25;;;5.50;;
61785;SDS011;47692;53.714;11.372;2023-06-26T08:15:27;8.07;;;5.50;;
61785;SDS011;47692;53.714;11.372;2023-06-26T08:17:53;8.13;;;5.72;;
61785;SDS011;47692;53.714;11.372;2023-06-26T08:20:18;7.90;;;5.45;;
61785;SDS011;47692;53.714;11.372;2023-06-26T08:22:44;6.60;;;5.47;;
61785;SDS011;47692;53.714;11.372;2023-06-26T08:25:11;9.95;;;5.35;;
61785;SDS011;47692;53.714;11.372;2023-06-26T08:27:36;7.00;;;5.05;;
61785;SDS011;47692;53.714;11.372;2023-06-26T08:30:01;11.07;;;5.30;;
61785;SDS011;47692;53.714;11.372;2023-06-26T08:32:28;6.65;;;5.72;;
61785;SDS011;47692;53.714;11.372;2023-06-26T08:34:53;9.43;;;5.63;;
61785;SDS011;47692;53.714;11.372;2023-06-26T08:37:18;7.93;;;5.35;;
61785;SDS011;47692;53.714;11.372;2023-06-26T08:39:43;7.85;;;5.28;;
61785;SDS011;47692;53.714;11.372;2023-06-26T08:42:09;7.32;;;5.20;;
61785;SDS011;47692;53.714;11.372;2023-06-26T08:44:34;8.57;;;5.43;;
61785;SDS011;47692;53.714;11.372;2023-06-26T08:47:00;7.57;;;5.15;;
61785;SDS011;47692;53.714;11.372;2023-06-26T08:49:37;7.60;;;5.78;;
61785;SDS011;47692;53.714;11.372;2023-06-26T08:52:24;6.97;;;5.38;;
61785;SDS011;47692;53.714;11.372;2023-06-26T08:54:56;8.75;;;5.65;;
61785;SDS011;47692;53.714;11.372;2023-06-26T08:57:23;6.53;;;4.95;;
61785;SDS011;47692;53.714;11.372;2023-06-26T08:59:51;6.20;;;5.30;;
61785;SDS011;47692;53.714;11.372;2023-06-26T09:02:16;6.70;;;4.95;;
61785;SDS011;47692;53.714;11.372;2023-06-26T09:04:42;5.72;;;5.00;;
61785;SDS011;47692;53.714;11.372;2023-06-26T09:07:07;6.93;;;5.10;;
61785;SDS011;47692;53.714;11.372;2023-06-26T09:09:33;6.35;;;5.30;;
61785;SDS011;47692;53.714;11.372;2023-06-26T09:11:58;6.43;;;5.20;;
61785;SDS011;47692;53.714;11.372;2023-06-26T09:14:24;6.53;;;5.25;;
61785;SDS011;47692;53.714;11.372;2023-06-26T09:16:50;12.38;;;5.68;;
61785;SDS011;47692;53.714;11.372;2023-06-26T09:19:15;8.55;;;5.32;;
61785;SDS011;47692;53.714;11.372;2023-06-26T09:21:43;6.63;;;5.18;;
61785;SDS011;47692;53.714;11.372;2023-06-26T09:24:09;6.80;;;5.07;;
61785;SDS011;47692;53.714;11.372;2023-06-26T09:26:35;6.38;;;4.90;;
61785;SDS011;47692;53.714;11.372;2023-06-26T09:29:02;6.45;;;4.75;;
61785;SDS011;47692;53.714;11.372;2023-06-26T09:31:28;5.85;;;4.70;;
61785;SDS011;47692;53.714;11.372;2023-06-26T09:34:00;7.63;;;5.20;;
61785;SDS011;47692;53.714;11.372;2023-06-26T09:36:27;7.90;;;5.07;;
61785;SDS011;47692;53.714;11.372;2023-06-26T09:38:54;5.88;;;4.65;;
61785;SDS011;47692;53.714;11.372;2023-06-26T09:41:20;5.72;;;4.57;;
61785;SDS011;47692;53.714;11.372;2023-06-26T09:43:49;8.25;;;5.43;;
61785;SDS011;47692;53.714;11.372;2023-06-26T09:46:25;6.55;;;5.00;;
61785;SDS011;47692;53.714;11.372;2023-06-26T09:49:01;6.13;;;4.68;;
61785;SDS011;47692;53.714;11.372;2023-06-26T09:51:31;6.90;;;5.05;;
61785;SDS011;47692;53.714;11.372;2023-06-26T09:53:58;6.00;;;4.75;;
61785;SDS011;47692;53.714;11.372;2023-06-26T09:56:27;6.70;;;5.05;;
61785;SDS011;47692;53.714;11.372;2023-06-26T09:58:56;11.73;;;5.28;;
61785;SDS011;47692;53.714;11.372;2023-06-26T10:01:26;7.78;;;4.80;;
61785;SDS011;47692;53.714;11.372;2023-06-26T10:03:52;5.70;;;4.85;;
61785;SDS011;47692;53.714;11.372;2023-06-26T10:06:19;6.78;;;4.97;;
61785;SDS011;47692;53.714;11.372;2023-06-26T10:08:51;6.07;;;5.03;;
61785;SDS011;47692;53.714;11.372;2023-06-26T10:11:19;5.93;;;4.90;;
61785;SDS011;47692;53.714;11.372;2023-06-26T10:13:47;6.35;;;5.50;;
61785;SDS011;47692;53.714;11.372;2023-06-26T10:16:17;6.25;;;5.18;;
61785;SDS011;47692;53.714;11.372;2023-06-26T10:18:51;7.40;;;5.00;;
61785;SDS011;47692;53.714;11.372;2023-06-26T10:21:18;7.07;;;5.30;;
61785;SDS011;47692;53.714;11.372;2023-06-26T10:23:46;6.85;;;4.80;;
61785;SDS011;47692;53.714;11.372;2023-06-26T10:26:12;8.27;;;5.55;;
61785;SDS011;47692;53.714;11.372;2023-06-26T10:28:39;6.00;;;5.28;;
61785;SDS011;47692;53.714;11.372;2023-06-26T10:31:07;6.50;;;5.18;;
61785;SDS011;47692;53.714;11.372;2023-06-26T10:33:34;6.82;;;4.82;;
61785;SDS011;47692;53.714;11.372;2023-06-26T10:36:14;8.20;;;5.20;;
61785;SDS011;47692;53.714;11.372;2023-06-26T10:41:20;7.35;;;5.15;;
61785;SDS011;47692;53.714;11.372;2023-06-26T10:43:49;7.30;;;5.00;;
61785;SDS011;47692;53.714;11.372;2023-06-26T10:46:15;7.13;;;5.15;;
61785;SDS011;47692;53.714;11.372;2023-06-26T10:48:59;6.10;;;4.90;;
61785;SDS011;47692;53.714;11.372;2023-06-26T10:51:28;7.03;;;5.32;;
61785;SDS011;47692;53.714;11.372;2023-06-26T10:53:56;6.38;;;5.30;;
61785;SDS011;47692;53.714;11.372;2023-06-26T10:59:21;6.53;;;5.30;;
61785;SDS011;47692;53.714;11.372;2023-06-26T11:01:56;9.13;;;5.47;;
61785;SDS011;47692;53.714;11.372;2023-06-26T11:04:36;8.63;;;5.25;;
61785;SDS011;47692;53.714;11.372;2023-06-26T11:15:11;9.45;;;6.20;;
61785;SDS011;47692;53.714;11.372;2023-06-26T11:17:38;8.00;;;5.90;;
61785;SDS011;47692;53.714;11.372;2023-06-26T11:20:05;8.63;;;5.97;;
61785;SDS011;47692;53.714;11.372;2023-06-26T11:22:36;9.73;;;6.13;;
61785;SDS011;47692;53.714;11.372;2023-06-26T11:25:03;7.25;;;6.50;;
61785;SDS011;47692;53.714;11.372;2023-06-26T11:27:31;13.18;;;9.70;;
61785;SDS011;47692;53.714;11.372;2023-06-26T11:29:57;22.85;;;10.88;;
61785;SDS011;47692;53.714;11.372;2023-06-26T11:32:22;24.77;;;13.50;;
61785;SDS011;47692;53.714;11.372;2023-06-26T11:34:51;26.17;;;15.82;;
61785;SDS011;47692;53.714;11.372;2023-06-26T11:37:17;20.67;;;16.40;;
61785;SDS011;47692;53.714;11.372;2023-06-26T11:39:42;22.40;;;14.15;;
61785;SDS011;47692;53.714;11.372;2023-06-26T11:42:08;17.08;;;12.20;;
61785;SDS011;47692;53.714;11.372;2023-06-26T11:44:39;16.67;;;9.43;;
61785;SDS011;47692;53.714;11.372;2023-06-26T11:47:07;11.98;;;9.10;;
61785;SDS011;47692;53.714;11.372;2023-06-26T11:49:32;10.95;;;7.55;;
61785;SDS011;47692;53.714;11.372;2023-06-26T11:51:58;10.82;;;7.20;;
61785;SDS011;47692;53.714;11.372;2023-06-26T11:54:24;11.85;;;7.25;;
61785;SDS011;47692;53.714;11.372;2023-06-26T11:56:51;15.27;;;8.18;;
61785;SDS011;47692;53.714;11.372;2023-06-26T11:59:36;9.45;;;6.63;;
61785;SDS011;47692;53.714;11.372;2023-06-26T12:02:09;9.95;;;7.40;;
61785;SDS011;47692;53.714;11.372;2023-06-26T12:04:37;8.32;;;6.63;;
61785;SDS011;47692;53.714;11.372;2023-06-26T12:07:04;10.90;;;7.03;;
61785;SDS011;47692;53.714;11.372;2023-06-26T12:09:33;12.23;;;7.10;;
61785;SDS011;47692;53.714;11.372;2023-06-26T12:11:59;10.40;;;6.30;;
61785;SDS011;47692;53.714;11.372;2023-06-26T12:14:25;10.18;;;6.47;;
61785;SDS011;47692;53.714;11.372;2023-06-26T12:16:53;8.93;;;6.30;;
61785;SDS011;47692;53.714;11.372;2023-06-26T12:19:23;8.27;;;5.75;;
61785;SDS011;47692;53.714;11.372;2023-06-26T12:21:49;8.10;;;5.20;;
61785;SDS011;47692;53.714;11.372;2023-06-26T12:24:21;8.20;;;5.05;;
61785;SDS011;47692;53.714;11.372;2023-06-26T12:26:51;8.27;;;6.05;;
61785;SDS011;47692;53.714;11.372;2023-06-26T12:29:19;7.88;;;5.70;;
61785;SDS011;47692;53.714;11.372;2023-06-26T12:31:50;8.15;;;6.40;;
61785;SDS011;47692;53.714;11.372;2023-06-26T12:34:36;9.10;;;6.70;;
61785;SDS011;47692;53.714;11.372;2023-06-26T12:37:04;9.13;;;6.35;;
61785;SDS011;47692;53.714;11.372;2023-06-26T12:39:44;14.18;;;7.75;;
61785;SDS011;47692;53.714;11.372;2023-06-26T12:42:15;12.18;;;7.78;;
61785;SDS011;47692;53.714;11.372;2023-06-26T12:44:44;11.32;;;8.02;;
61785;SDS011;47692;53.714;11.372;2023-06-26T12:47:10;11.35;;;7.50;;
61785;SDS011;47692;53.714;11.372;2023-06-26T12:49:38;14.02;;;8.25;;
61785;SDS011;47692;53.714;11.372;2023-06-26T12:52:05;10.75;;;8.35;;
61785;SDS011;47692;53.714;11.372;2023-06-26T12:54:35;12.52;;;8.70;;
61785;SDS011;47692;53.714;11.372;2023-06-26T12:57:02;11.65;;;8.45;;
61785;SDS011;47692;53.714;11.372;2023-06-26T12:59:29;12.90;;;8.48;;
61785;SDS011;47692;53.714;11.372;2023-06-26T13:01:55;11.77;;;8.18;;
61785;SDS011;47692;53.714;11.372;2023-06-26T13:04:20;11.13;;;8.55;;
61785;SDS011;47692;53.714;11.372;2023-06-26T13:06:45;16.25;;;9.15;;
61785;SDS011;47692;53.714;11.372;2023-06-26T13:09:11;13.48;;;8.88;;
61785;SDS011;47692;53.714;11.372;2023-06-26T13:11:37;12.40;;;8.32;;
61785;SDS011;47692;53.714;11.372;2023-06-26T13:14:03;14.45;;;8.20;;
61785;SDS011;47692;53.714;11.372;2023-06-26T13:16:28;12.32;;;8.07;;
61785;SDS011;47692;53.714;11.372;2023-06-26T13:18:54;14.13;;;8.65;;
61785;SDS011;47692;53.714;11.372;2023-06-26T13:21:20;13.98;;;8.40;;
61785;SDS011;47692;53.714;11.372;2023-06-26T13:23:46;13.23;;;8.00;;
61785;SDS011;47692;53.714;11.372;2023-06-26T13:26:11;14.27;;;7.85;;
61785;SDS011;47692;53.714;11.372;2023-06-26T13:28:37;13.98;;;6.50;;
61785;SDS011;47692;53.714;11.372;2023-06-26T13:31:03;10.13;;;4.88;;
61785;SDS011;47692;53.714;11.372;2023-06-26T13:33:28;12.30;;;4.13;;
61785;SDS011;47692;53.714;11.372;2023-06-26T13:35:54;6.45;;;3.13;;
61785;SDS011;47692;53.714;11.372;2023-06-26T13:38:20;8.25;;;3.00;;
61785;SDS011;47692;53.714;11.372;2023-06-26T13:40:49;5.60;;;3.10;;
61785;SDS011;47692;53.714;11.372;2023-06-26T13:48:26;8.18;;;2.33;;
61785;SDS011;47692;53.714;11.372;2023-06-26T13:50:52;5.90;;;1.95;;
61785;SDS011;47692;53.714;11.372;2023-06-26T13:53:18;6.05;;;1.70;;
61785;SDS011;47692;53.714;11.372;2023-06-26T13:55:44;8.35;;;1.83;;
61785;SDS011;47692;53.714;11.372;2023-06-26T13:58:09;5.55;;;1.90;;
61785;SDS011;47692;53.714;11.372;2023-06-26T14:00:36;6.72;;;1.80;;
61785;SDS011;47692;53.714;11.372;2023-06-26T14:03:05;5.90;;;1.75;;
61785;SDS011;47692;53.714;11.372;2023-06-26T14:05:34;7.10;;;1.90;;
61785;SDS011;47692;53.714;11.372;2023-06-26T14:08:04;2.97;;;1.48;;
61785;SDS011;47692;53.714;11.372;2023-06-26T14:10:32;5.95;;;1.83;;
61785;SDS011;47692;53.714;11.372;2023-06-26T14:13:01;11.88;;;2.22;;
61785;SDS011;47692;53.714;11.372;2023-06-26T14:15:28;8.88;;;1.70;;
61785;SDS011;47692;53.714;11.372;2023-06-26T14:17:53;4.43;;;1.60;;
61785;SDS011;47692;53.714;11.372;2023-06-26T14:20:20;7.13;;;1.80;;
61785;SDS011;47692;53.714;11.372;2023-06-26T14:22:47;4.93;;;2.00;;
61785;SDS011;47692;53.714;11.372;2023-06-26T14:25:14;4.95;;;2.00;;
61785;SDS011;47692;53.714;11.372;2023-06-26T14:27:40;6.40;;;2.05;;
61785;SDS011;47692;53.714;11.372;2023-06-26T14:30:06;7.78;;;1.60;;
61785;SDS011;47692;53.714;11.372;2023-06-26T14:32:35;8.20;;;1.73;;
61785;SDS011;47692;53.714;11.372;2023-06-26T14:35:01;5.32;;;1.90;;
61785;SDS011;47692;53.714;11.372;2023-06-26T14:37:26;5.90;;;1.90;;
61785;SDS011;47692;53.714;11.372;2023-06-26T14:39:54;5.80;;;1.70;;
61785;SDS011;47692;53.714;11.372;2023-06-26T14:42:19;4.72;;;1.90;;
61785;SDS011;47692;53.714;11.372;2023-06-26T14:44:44;6.03;;;2.15;;
61785;SDS011;47692;53.714;11.372;2023-06-26T14:47:12;6.88;;;2.05;;
61785;SDS011;47692;53.714;11.372;2023-06-26T14:49:38;8.27;;;1.98;;
61785;SDS011;47692;53.714;11.372;2023-06-26T14:52:04;3.08;;;1.48;;